Roche Harbor, Washington
Current Conditions -  °F | °C
As of 4:53 AM on Friday 26 Dec 2014 (Local Time) from KFHR Reporting Station
Overcast Overcast  
Wind Chill: 42°   Ceiling: 3300
Heat Index: 42°   Visibility: 10mi
Dew Point: 39°   Wind: 3mph
Humidity: 89%   Direction: 110°ESE
Pressure: 30.33"   Gusts: NA
Location:  48.5377°N, 123.083°W
Report Text: KFHR 261253Z AUTO 11003KT 10SM FEW008 SCT020 OVC033 06/04 A3033 RMK AO2 SLP273 T00560039
Loading
Personal Weather Stations






























Interactive Weather Map New forecast layout! Learn more

10-Day Weather Forecast

Advertisements
Track Severe Weather on mobile